createdAt,value
2018-05-31T00:01:50.589Z,45.22
2018-05-31T00:04:16.606Z,45.15
2018-05-31T00:06:42.576Z,45.16
2018-05-31T00:09:08.559Z,45.10
2018-05-31T00:11:34.557Z,45.01
2018-05-31T00:14:00.630Z,45.03
2018-05-31T00:16:26.618Z,44.97
2018-05-31T00:18:52.596Z,44.90
2018-05-31T00:21:18.582Z,44.90
2018-05-31T00:23:44.568Z,44.91
2018-05-31T00:26:10.549Z,44.87
2018-05-31T00:28:36.538Z,44.81
2018-05-31T00:31:02.527Z,44.75
2018-05-31T00:33:28.509Z,44.87
2018-05-31T00:35:54.497Z,44.88
2018-05-31T00:38:20.483Z,45.01
2018-05-31T00:40:46.471Z,45.09
2018-05-31T00:43:12.507Z,45.11
2018-05-31T00:45:38.486Z,45.30
2018-05-31T00:48:04.480Z,45.28
2018-05-31T00:50:30.460Z,45.31
2018-05-31T00:52:56.438Z,45.35
2018-05-31T00:55:22.426Z,45.38
2018-05-31T00:57:48.422Z,45.41
2018-05-31T01:00:14.492Z,45.42
2018-05-31T01:02:40.589Z,45.58
2018-05-31T01:05:06.535Z,45.68
2018-05-31T01:07:32.627Z,45.88
2018-05-31T01:09:58.514Z,45.89
2018-05-31T01:12:24.563Z,45.95
2018-05-31T01:14:50.519Z,46.03
2018-05-31T01:17:16.506Z,46.10
2018-05-31T01:19:42.608Z,46.08
2018-05-31T01:22:08.595Z,46.15
2018-05-31T01:24:34.611Z,46.22
2018-05-31T01:27:00.603Z,46.19
2018-05-31T01:29:26.595Z,46.22
2018-05-31T01:31:52.579Z,46.25
2018-05-31T01:34:18.562Z,46.20
2018-05-31T01:36:44.553Z,46.22
2018-05-31T01:39:10.540Z,46.19
2018-05-31T01:41:36.519Z,46.24
2018-05-31T01:44:02.517Z,46.23
2018-05-31T01:46:28.482Z,46.19
2018-05-31T01:48:54.466Z,46.26
2018-05-31T01:51:20.442Z,46.11
2018-05-31T01:53:46.587Z,46.21
2018-05-31T01:56:12.680Z,46.18
2018-05-31T01:58:38.688Z,46.25
2018-05-31T02:01:04.658Z,46.18
2018-05-31T02:03:30.644Z,46.12
2018-05-31T02:05:56.635Z,46.06
2018-05-31T02:08:22.726Z,46.09
2018-05-31T02:10:48.728Z,46.10
2018-05-31T02:13:14.717Z,46.11
2018-05-31T02:15:40.701Z,46.05
2018-05-31T02:18:06.684Z,45.97
2018-05-31T02:20:32.667Z,45.91
2018-05-31T02:22:58.690Z,45.97
2018-05-31T02:25:24.670Z,45.96
2018-05-31T02:27:50.643Z,45.89
2018-05-31T02:30:16.666Z,45.93
2018-05-31T02:32:42.777Z,45.87
2018-05-31T02:35:08.751Z,45.91
2018-05-31T02:37:34.771Z,45.86
2018-05-31T02:40:00.790Z,45.91
2018-05-31T02:42:26.762Z,45.86
2018-05-31T02:44:52.749Z,45.92
2018-05-31T02:47:18.727Z,45.87
2018-05-31T02:49:44.714Z,45.93
2018-05-31T02:52:10.742Z,45.88
2018-05-31T02:54:36.718Z,46.06
2018-05-31T02:57:02.694Z,46.03
2018-05-31T02:59:28.677Z,45.90
2018-05-31T03:01:54.659Z,45.97
2018-05-31T03:04:20.634Z,45.84
2018-05-31T03:06:46.628Z,45.95
2018-05-31T03:09:12.604Z,45.86
2018-05-31T03:11:38.614Z,45.86
2018-05-31T03:14:04.602Z,45.87
2018-05-31T03:16:30.593Z,45.87
2018-05-31T03:18:56.571Z,45.93
2018-05-31T03:21:22.549Z,45.79
2018-05-31T03:23:48.532Z,45.89
2018-05-31T03:26:14.521Z,45.86
2018-05-31T03:28:40.506Z,45.89
2018-05-31T03:31:06.487Z,45.82
2018-05-31T03:33:32.565Z,45.88
2018-05-31T03:35:58.553Z,45.79
2018-05-31T03:38:24.544Z,45.85
2018-05-31T03:40:50.523Z,45.71
2018-05-31T03:43:16.543Z,45.84
2018-05-31T03:45:42.536Z,45.85
2018-05-31T03:48:08.518Z,45.75
2018-05-31T03:50:34.504Z,45.73
2018-05-31T03:53:00.493Z,45.61
2018-05-31T03:55:26.485Z,46.05
2018-05-31T03:57:52.460Z,45.97
2018-05-31T04:00:18.472Z,45.97
2018-05-31T04:02:44.462Z,46.24
2018-05-31T04:05:10.434Z,46.37
2018-05-31T04:07:36.467Z,46.34
2018-05-31T04:10:02.452Z,45.83
2018-05-31T04:12:28.442Z,46.14
2018-05-31T04:14:54.446Z,46.03
2018-05-31T04:17:20.426Z,46.31
2018-05-31T04:19:46.415Z,46.37
2018-05-31T04:22:12.443Z,46.73
2018-05-31T04:24:38.438Z,46.90
2018-05-31T04:27:04.461Z,47.01
2018-05-31T04:29:30.409Z,47.06
2018-05-31T04:31:56.395Z,46.80
2018-05-31T04:34:22.406Z,47.16
2018-05-31T04:36:48.387Z,47.13
2018-05-31T04:39:14.429Z,47.08
2018-05-31T04:41:40.541Z,47.20
2018-05-31T04:44:06.531Z,47.20
2018-05-31T04:46:32.571Z,47.32
2018-05-31T04:48:58.543Z,47.17
2018-05-31T04:51:24.541Z,47.42
2018-05-31T04:53:50.571Z,47.56
2018-05-31T04:56:16.607Z,47.72
2018-05-31T04:58:42.562Z,47.72
2018-05-31T05:01:08.542Z,47.74
2018-05-31T05:03:34.556Z,47.88
2018-05-31T05:06:00.545Z,47.99
2018-05-31T05:08:26.589Z,48.06
2018-05-31T05:10:52.538Z,48.01
2018-05-31T05:13:18.528Z,47.90
2018-05-31T05:15:44.554Z,48.04
2018-05-31T05:18:10.515Z,48.01
2018-05-31T05:20:36.534Z,47.81
2018-05-31T05:23:02.522Z,47.88
2018-05-31T05:25:28.504Z,47.94
2018-05-31T05:27:54.515Z,48.03
2018-05-31T05:30:20.505Z,47.94
2018-05-31T05:32:46.553Z,48.00
2018-05-31T05:35:12.634Z,47.99
2018-05-31T05:37:38.621Z,48.08
2018-05-31T05:40:04.602Z,47.96
2018-05-31T05:42:30.600Z,47.83
2018-05-31T05:44:56.680Z,47.69
2018-05-31T05:47:22.668Z,47.51
2018-05-31T05:49:48.659Z,47.37
2018-05-31T05:52:15.196Z,47.38
2018-05-31T05:54:41.855Z,47.33
2018-05-31T05:57:07.982Z,47.26
2018-05-31T05:59:34.499Z,47.19
2018-05-31T06:02:00.881Z,47.11
2018-05-31T06:04:26.893Z,47.07
2018-05-31T06:06:52.912Z,47.03
2018-05-31T06:09:19.161Z,46.84
2018-05-31T06:11:45.189Z,46.79
2018-05-31T06:14:11.272Z,46.84
2018-05-31T06:16:39.437Z,46.94
2018-05-31T06:19:05.454Z,47.00
2018-05-31T06:21:31.481Z,46.91
2018-05-31T06:23:57.546Z,46.93
2018-05-31T06:26:23.667Z,46.89
2018-05-31T06:28:49.723Z,46.86
2018-05-31T06:31:15.669Z,46.98
2018-05-31T06:33:41.669Z,47.05
2018-05-31T06:36:07.723Z,46.98
2018-05-31T06:38:33.709Z,46.93
2018-05-31T06:40:59.730Z,47.04
2018-05-31T06:43:25.703Z,47.00
2018-05-31T06:45:51.699Z,47.15
2018-05-31T06:48:17.680Z,47.24
2018-05-31T06:50:43.666Z,47.21
2018-05-31T06:53:09.656Z,47.15
2018-05-31T06:55:35.640Z,47.01
2018-05-31T06:58:01.628Z,46.94
2018-05-31T07:00:27.690Z,47.02
2018-05-31T07:02:53.671Z,47.04
2018-05-31T07:05:19.643Z,47.01
2018-05-31T07:07:45.630Z,46.95
2018-05-31T07:10:11.633Z,46.93
2018-05-31T07:12:37.618Z,46.82
2018-05-31T07:15:03.631Z,46.88
2018-05-31T07:17:29.628Z,47.01
2018-05-31T07:19:55.616Z,47.03
2018-05-31T07:22:21.614Z,46.97
2018-05-31T07:24:47.598Z,46.89
2018-05-31T07:27:13.603Z,46.95
2018-05-31T07:29:39.583Z,46.94
2018-05-31T07:32:05.568Z,46.91
2018-05-31T07:34:31.546Z,46.88
2018-05-31T07:36:57.523Z,46.76
2018-05-31T07:39:23.508Z,46.87
2018-05-31T07:41:49.505Z,46.76
2018-05-31T07:44:15.505Z,46.71
2018-05-31T07:46:41.479Z,46.63
2018-05-31T07:49:07.451Z,46.55
2018-05-31T07:51:33.461Z,46.39
2018-05-31T07:53:59.456Z,46.26
2018-05-31T07:56:25.466Z,46.19
2018-05-31T07:58:51.435Z,46.23
2018-05-31T08:01:17.415Z,46.22
2018-05-31T08:03:43.400Z,46.27
2018-05-31T08:06:09.416Z,46.27
2018-05-31T08:08:35.369Z,46.34
2018-05-31T08:11:01.356Z,46.39
2018-05-31T08:13:27.355Z,46.42
2018-05-31T08:15:53.347Z,46.38
2018-05-31T08:18:19.316Z,46.49
2018-05-31T08:20:45.352Z,46.48
2018-05-31T08:23:11.313Z,46.65
2018-05-31T08:25:37.314Z,46.43
2018-05-31T08:28:03.300Z,46.61
2018-05-31T08:30:29.326Z,46.83
2018-05-31T08:32:55.315Z,46.68
2018-05-31T08:35:21.302Z,46.40
2018-05-31T08:37:47.290Z,46.26
2018-05-31T08:40:13.310Z,46.33
2018-05-31T08:42:39.298Z,46.26
2018-05-31T08:45:05.273Z,46.29
2018-05-31T08:47:31.289Z,46.17
2018-05-31T08:49:57.283Z,45.94
2018-05-31T08:52:23.267Z,46.02
2018-05-31T08:54:49.261Z,46.13
2018-05-31T08:57:15.253Z,45.98
2018-05-31T08:59:41.234Z,45.99
2018-05-31T09:02:07.258Z,45.94
2018-05-31T09:04:33.243Z,45.95
2018-05-31T09:06:59.233Z,45.62
2018-05-31T09:09:25.245Z,45.55
2018-05-31T09:11:51.222Z,45.68
2018-05-31T09:14:17.210Z,45.75
2018-05-31T09:16:43.187Z,45.89
2018-05-31T09:19:09.173Z,45.91
2018-05-31T09:21:35.158Z,45.87
2018-05-31T09:24:01.166Z,45.72
2018-05-31T09:26:27.145Z,45.84
2018-05-31T09:28:53.137Z,45.74
2018-05-31T09:31:19.194Z,45.84
2018-05-31T09:33:45.160Z,45.52
2018-05-31T09:36:11.142Z,45.90
2018-05-31T09:38:37.136Z,46.02
2018-05-31T09:41:03.175Z,45.95
2018-05-31T09:43:29.138Z,45.93
2018-05-31T09:45:55.116Z,46.13
2018-05-31T09:48:21.123Z,46.05
2018-05-31T09:50:47.101Z,45.91
2018-05-31T09:53:13.083Z,45.86
2018-05-31T09:55:39.091Z,45.76
2018-05-31T09:58:05.168Z,45.79
2018-05-31T10:00:31.151Z,45.72
2018-05-31T10:02:57.131Z,45.72
2018-05-31T10:05:23.121Z,45.65
2018-05-31T10:07:49.103Z,46.00
2018-05-31T10:10:15.095Z,45.50
2018-05-31T10:12:41.101Z,45.34
2018-05-31T10:15:07.145Z,45.19
2018-05-31T10:17:33.081Z,45.22
2018-05-31T10:19:59.081Z,45.21
2018-05-31T10:22:25.096Z,45.38
2018-05-31T10:24:51.118Z,45.14
2018-05-31T10:27:17.103Z,44.97
2018-05-31T10:29:43.104Z,45.16
2018-05-31T10:32:09.098Z,45.28
2018-05-31T10:34:35.139Z,45.43
2018-05-31T10:37:01.117Z,45.53
2018-05-31T10:39:27.166Z,45.67
2018-05-31T10:41:53.093Z,45.77
2018-05-31T10:44:19.080Z,45.83
2018-05-31T10:46:45.051Z,45.85
2018-05-31T10:49:11.069Z,45.93
2018-05-31T10:51:37.049Z,46.02
2018-05-31T10:54:03.028Z,46.06
2018-05-31T10:56:29.009Z,46.14
2018-05-31T10:58:54.990Z,46.19
2018-05-31T11:01:20.967Z,46.30
2018-05-31T11:03:46.962Z,46.49
2018-05-31T11:06:12.953Z,46.50
2018-05-31T11:08:39.002Z,46.63
2018-05-31T11:11:04.987Z,46.72
2018-05-31T11:13:31.018Z,46.77
2018-05-31T11:15:56.962Z,46.79
2018-05-31T11:18:22.949Z,46.34
2018-05-31T11:20:48.933Z,46.67
2018-05-31T11:23:14.913Z,46.59
2018-05-31T11:25:40.894Z,46.26
2018-05-31T11:28:06.925Z,46.42
2018-05-31T11:30:32.880Z,46.43
2018-05-31T11:32:58.862Z,46.43
2018-05-31T11:35:24.845Z,46.58
2018-05-31T11:37:50.828Z,46.79
2018-05-31T11:40:16.818Z,46.85
2018-05-31T11:42:42.807Z,46.79
2018-05-31T11:45:08.785Z,46.78
2018-05-31T11:47:34.817Z,46.81
2018-05-31T11:50:00.755Z,46.90
2018-05-31T11:52:26.747Z,47.03
2018-05-31T11:54:52.738Z,46.99
2018-05-31T11:57:18.720Z,46.99
2018-05-31T11:59:44.740Z,47.13
2018-05-31T12:02:10.703Z,47.14
2018-05-31T12:04:36.685Z,47.13
2018-05-31T12:07:02.708Z,47.12
2018-05-31T12:09:28.692Z,47.07
2018-05-31T12:11:54.709Z,47.13
2018-05-31T12:14:20.690Z,47.17
2018-05-31T12:16:46.725Z,47.03
2018-05-31T12:19:12.721Z,47.10
2018-05-31T12:21:38.717Z,47.11
2018-05-31T12:24:04.706Z,47.14
2018-05-31T12:26:30.696Z,47.30
2018-05-31T12:28:56.819Z,47.19
2018-05-31T12:31:22.813Z,47.11
2018-05-31T12:33:48.803Z,47.32
2018-05-31T12:36:14.782Z,47.15
2018-05-31T12:38:40.798Z,46.65
2018-05-31T12:41:06.788Z,46.34
2018-05-31T12:43:32.776Z,46.70
2018-05-31T12:45:58.763Z,45.32
2018-05-31T12:48:24.748Z,45.33
2018-05-31T12:50:50.736Z,45.64
2018-05-31T12:53:16.719Z,45.77
2018-05-31T12:55:42.716Z,45.73
2018-05-31T12:58:08.764Z,45.75
2018-05-31T13:00:34.750Z,45.76
2018-05-31T13:03:00.736Z,45.73
2018-05-31T13:05:26.779Z,45.56
2018-05-31T13:07:52.809Z,45.73
2018-05-31T13:10:18.758Z,45.75
2018-05-31T13:12:44.739Z,45.63
2018-05-31T13:15:10.820Z,45.81
2018-05-31T13:17:36.801Z,46.06
2018-05-31T13:20:02.816Z,45.58
2018-05-31T13:22:28.815Z,45.79
2018-05-31T13:24:54.805Z,45.72
2018-05-31T13:27:20.838Z,45.76
2018-05-31T13:29:46.822Z,45.57
2018-05-31T13:32:12.810Z,45.33
2018-05-31T13:34:38.797Z,45.70
2018-05-31T13:37:04.837Z,45.72
2018-05-31T13:39:30.872Z,45.99
2018-05-31T13:41:56.827Z,46.28
2018-05-31T13:44:22.857Z,46.34
2018-05-31T13:46:48.834Z,46.34
2018-05-31T13:49:21.845Z,46.58
2018-05-31T13:51:47.864Z,46.07
2018-05-31T13:54:13.852Z,45.91
2018-05-31T13:56:39.841Z,46.28
2018-05-31T13:59:05.832Z,45.98
2018-05-31T14:01:31.821Z,45.85
2018-05-31T14:03:57.882Z,45.42
2018-05-31T14:06:23.858Z,46.07
2018-05-31T14:08:49.844Z,45.05
2018-05-31T14:11:15.846Z,43.82
2018-05-31T14:13:41.830Z,43.24
2018-05-31T14:16:07.912Z,42.56
2018-05-31T14:18:33.892Z,42.67
2018-05-31T14:20:59.943Z,43.25
2018-05-31T14:23:25.912Z,43.33
2018-05-31T14:25:51.918Z,43.46
2018-05-31T14:28:18.129Z,43.69
2018-05-31T14:30:44.242Z,44.08
2018-05-31T14:33:10.227Z,44.18
2018-05-31T14:35:36.309Z,44.11
2018-05-31T14:38:03.117Z,44.43
2018-05-31T14:40:29.861Z,44.33
2018-05-31T14:42:56.403Z,44.34
2018-05-31T14:45:23.021Z,44.29
2018-05-31T14:47:49.206Z,44.28
2018-05-31T14:50:18.259Z,44.43
2018-05-31T14:52:44.668Z,44.27
2018-05-31T14:55:10.670Z,44.25
2018-05-31T14:57:36.778Z,44.31
2018-05-31T15:00:03.727Z,44.22
2018-05-31T15:02:29.940Z,44.04
2018-05-31T15:04:55.934Z,44.27
2018-05-31T15:07:21.995Z,44.28
2018-05-31T15:09:47.995Z,44.38
2018-05-31T15:12:13.979Z,44.54
2018-05-31T15:14:39.993Z,44.43
2018-05-31T15:17:05.991Z,44.42
2018-05-31T15:19:32.091Z,44.46
2018-05-31T15:21:58.162Z,44.46
2018-05-31T15:24:24.271Z,44.38
2018-05-31T15:26:50.270Z,44.54
2018-05-31T15:29:16.300Z,44.55
2018-05-31T15:31:42.257Z,45.40
2018-05-31T15:34:08.254Z,45.26
2018-05-31T15:36:34.257Z,45.78
2018-05-31T15:39:00.253Z,44.60
2018-05-31T15:41:26.252Z,44.32
2018-05-31T15:43:52.239Z,44.66
2018-05-31T15:46:18.243Z,43.93
2018-05-31T15:48:44.219Z,44.85
2018-05-31T15:51:10.199Z,43.85
2018-05-31T15:53:36.178Z,44.26
2018-05-31T15:56:02.166Z,44.65
2018-05-31T15:58:28.208Z,45.07
2018-05-31T16:00:54.274Z,44.77
2018-05-31T16:03:20.269Z,44.83
2018-05-31T16:05:46.280Z,45.29
2018-05-31T16:08:12.263Z,44.32
2018-05-31T16:10:38.271Z,45.01
2018-05-31T16:13:04.294Z,44.27
2018-05-31T16:15:30.276Z,44.55
2018-05-31T16:17:56.263Z,44.91
2018-05-31T16:20:22.249Z,44.76
2018-05-31T16:22:48.239Z,45.00
2018-05-31T16:25:14.225Z,45.51
2018-05-31T16:27:40.222Z,45.55
2018-05-31T16:30:06.210Z,45.12
2018-05-31T16:32:32.188Z,45.79
2018-05-31T16:34:58.210Z,44.59
2018-05-31T16:37:24.163Z,45.33
2018-05-31T16:39:50.145Z,44.65
2018-05-31T16:42:16.165Z,43.92
2018-05-31T16:44:42.138Z,44.94
2018-05-31T16:47:08.126Z,44.80
2018-05-31T16:49:34.113Z,44.89
2018-05-31T16:52:00.117Z,44.56
2018-05-31T16:54:26.103Z,45.65
2018-05-31T16:56:52.089Z,45.71
2018-05-31T16:59:18.152Z,45.64
2018-05-31T17:01:44.073Z,45.21
2018-05-31T17:04:10.052Z,45.12
2018-05-31T17:06:36.038Z,45.85
2018-05-31T17:09:02.074Z,45.94
2018-05-31T17:11:28.047Z,45.84
2018-05-31T17:13:54.061Z,45.81
2018-05-31T17:16:20.054Z,45.92
2018-05-31T17:18:46.051Z,46.05
2018-05-31T17:21:12.035Z,45.97
2018-05-31T17:23:38.024Z,46.22
2018-05-31T17:26:04.018Z,46.17
2018-05-31T17:28:30.005Z,46.37
2018-05-31T17:30:55.982Z,46.28
2018-05-31T17:33:22.011Z,46.13
2018-05-31T17:35:47.990Z,46.31
2018-05-31T17:38:13.966Z,46.27
2018-05-31T17:40:39.995Z,46.32
2018-05-31T17:43:05.993Z,46.38
2018-05-31T17:45:32.039Z,46.45
2018-05-31T17:47:58.079Z,46.29
2018-05-31T17:50:24.108Z,46.27
2018-05-31T17:52:50.209Z,46.41
2018-05-31T17:55:16.227Z,46.13
2018-05-31T17:57:42.176Z,46.12
2018-05-31T18:00:08.154Z,46.23
2018-05-31T18:02:34.138Z,46.48
2018-05-31T18:05:00.163Z,46.32
2018-05-31T18:07:26.235Z,45.94
2018-05-31T18:09:52.269Z,45.92
2018-05-31T18:12:18.248Z,45.81
2018-05-31T18:14:44.232Z,46.27
2018-05-31T18:17:10.231Z,45.56
2018-05-31T18:19:36.280Z,45.56
2018-05-31T18:22:02.262Z,45.43
2018-05-31T18:24:28.260Z,45.75
2018-05-31T18:26:54.240Z,45.25
2018-05-31T18:29:20.228Z,45.30
2018-05-31T18:31:46.268Z,45.68
2018-05-31T18:34:12.245Z,45.42
2018-05-31T18:36:38.238Z,45.18
2018-05-31T18:39:04.242Z,45.28
2018-05-31T18:41:30.250Z,46.13
2018-05-31T18:43:56.248Z,45.95
2018-05-31T18:46:22.221Z,45.33
2018-05-31T18:48:48.225Z,46.25
2018-05-31T18:51:14.695Z,45.50
2018-05-31T18:53:40.655Z,45.51
2018-05-31T18:56:06.695Z,45.98
2018-05-31T18:58:33.258Z,46.09
2018-05-31T19:00:59.692Z,46.19
2018-05-31T19:03:27.388Z,46.59
2018-05-31T19:05:53.522Z,46.48
2018-05-31T19:08:19.513Z,46.26
2018-05-31T19:10:46.451Z,46.23
2018-05-31T19:13:13.140Z,46.50
2018-05-31T19:15:39.169Z,46.49
2018-05-31T19:18:05.111Z,46.49
2018-05-31T19:20:31.096Z,46.52
2018-05-31T19:22:57.077Z,46.59
2018-05-31T19:25:23.078Z,46.61
2018-05-31T19:27:49.070Z,46.84
2018-05-31T19:30:15.047Z,46.70
2018-05-31T19:32:41.035Z,46.64
2018-05-31T19:35:07.058Z,46.78
2018-05-31T19:37:33.036Z,46.77
2018-05-31T19:39:59.023Z,46.78
2018-05-31T19:42:25.363Z,46.87
2018-05-31T19:44:51.315Z,46.89
2018-05-31T19:47:17.303Z,46.91
2018-05-31T19:49:43.287Z,46.92
2018-05-31T19:52:10.432Z,46.93
2018-05-31T19:54:37.281Z,46.99
2018-05-31T19:57:03.492Z,46.98
2018-05-31T19:59:32.750Z,47.00
2018-05-31T20:01:59.126Z,47.01
2018-05-31T20:04:26.190Z,46.96
2018-05-31T20:06:52.910Z,46.96
2018-05-31T20:09:19.394Z,47.04
2018-05-31T20:11:45.488Z,47.01
2018-05-31T20:14:11.622Z,46.95
2018-05-31T20:16:37.624Z,47.00
2018-05-31T20:19:03.712Z,46.99
2018-05-31T20:21:29.696Z,47.03
2018-05-31T20:23:55.701Z,46.99
2018-05-31T20:26:21.733Z,47.00
2018-05-31T20:28:47.672Z,47.03
2018-05-31T20:31:13.662Z,47.06
2018-05-31T20:33:39.683Z,47.04
2018-05-31T20:36:05.674Z,47.09
2018-05-31T20:38:31.659Z,47.17
2018-05-31T20:40:57.644Z,47.20
2018-05-31T20:43:23.636Z,47.15
2018-05-31T20:45:49.634Z,47.28
2018-05-31T20:48:15.619Z,47.12
2018-05-31T20:50:41.616Z,47.20
2018-05-31T20:53:07.602Z,47.35
2018-05-31T20:55:33.590Z,47.17
2018-05-31T20:57:59.578Z,47.25
2018-05-31T21:00:25.559Z,47.28
2018-05-31T21:02:51.544Z,47.36
2018-05-31T21:05:17.553Z,47.29
2018-05-31T21:07:43.535Z,47.35
2018-05-31T21:10:09.515Z,47.36
2018-05-31T21:12:35.500Z,47.27
2018-05-31T21:15:01.493Z,47.21
2018-05-31T21:17:27.484Z,47.09
2018-05-31T21:19:53.471Z,47.10
2018-05-31T21:22:19.486Z,47.05
2018-05-31T21:24:45.470Z,47.25
2018-05-31T21:27:11.454Z,47.05
2018-05-31T21:29:37.467Z,47.03
2018-05-31T21:32:03.450Z,47.03
2018-05-31T21:34:29.432Z,47.08
2018-05-31T21:36:55.425Z,47.01
2018-05-31T21:39:21.413Z,46.93
2018-05-31T21:41:47.398Z,46.94
2018-05-31T21:44:13.386Z,46.91
2018-05-31T21:46:39.367Z,46.99
2018-05-31T21:49:05.357Z,46.97
2018-05-31T21:51:31.336Z,46.93
2018-05-31T21:53:57.312Z,46.97
2018-05-31T21:56:23.291Z,46.94
2018-05-31T21:58:49.274Z,46.94
2018-05-31T22:01:15.273Z,46.93
2018-05-31T22:03:41.249Z,46.86
2018-05-31T22:06:07.231Z,46.91
2018-05-31T22:08:33.219Z,46.90
2018-05-31T22:10:59.202Z,46.90
2018-05-31T22:13:25.194Z,46.92
2018-05-31T22:15:51.172Z,46.91
2018-05-31T22:18:17.155Z,46.86
2018-05-31T22:20:43.166Z,46.82
2018-05-31T22:23:09.148Z,46.77
2018-05-31T22:25:35.138Z,46.84
2018-05-31T22:28:01.120Z,46.92
2018-05-31T22:30:27.101Z,46.85
2018-05-31T22:32:53.083Z,46.83
2018-05-31T22:35:19.070Z,46.84
2018-05-31T22:37:45.060Z,46.87
2018-05-31T22:40:11.049Z,46.79
2018-05-31T22:42:37.029Z,46.89
2018-05-31T22:45:03.008Z,46.82
2018-05-31T22:47:28.986Z,46.93
2018-05-31T22:49:54.966Z,46.69
2018-05-31T22:52:20.948Z,46.77
2018-05-31T22:54:46.928Z,46.71
2018-05-31T22:57:12.915Z,46.79
2018-05-31T22:59:38.912Z,46.87
2018-05-31T23:02:04.911Z,46.75
2018-05-31T23:04:30.896Z,46.77
2018-05-31T23:06:56.879Z,46.73
2018-05-31T23:09:22.873Z,46.65
2018-05-31T23:11:48.851Z,46.69
2018-05-31T23:14:14.837Z,46.71
2018-05-31T23:16:40.820Z,46.67
2018-05-31T23:19:06.807Z,46.39
2018-05-31T23:21:32.784Z,46.42
2018-05-31T23:23:58.768Z,46.33
2018-05-31T23:26:24.748Z,46.26
2018-05-31T23:28:50.733Z,46.25
2018-05-31T23:31:16.714Z,46.20
2018-05-31T23:33:42.699Z,46.04
2018-05-31T23:36:08.669Z,46.03
2018-05-31T23:38:34.657Z,46.15
2018-05-31T23:41:00.635Z,46.18
2018-05-31T23:43:26.623Z,46.27
2018-05-31T23:45:52.604Z,46.16
2018-05-31T23:48:18.588Z,46.16
2018-05-31T23:50:44.570Z,46.19
2018-05-31T23:53:10.556Z,46.20
2018-05-31T23:55:36.535Z,46.31
2018-05-31T23:58:02.514Z,46.19
